sensor_id;sensor_type;location;lat;lon;timestamp;P1;durP1;ratioP1;P2;durP2;ratioP2
22916;SDS011;11624;53.250;7.456;2023-04-24T00:01:06;11.77;;;4.72;;
22916;SDS011;11624;53.250;7.456;2023-04-24T00:03:35;10.82;;;4.70;;
22916;SDS011;11624;53.250;7.456;2023-04-24T00:06:05;10.88;;;4.97;;
22916;SDS011;11624;53.250;7.456;2023-04-24T00:08:34;12.15;;;4.80;;
22916;SDS011;11624;53.250;7.456;2023-04-24T00:11:03;9.30;;;4.60;;
22916;SDS011;11624;53.250;7.456;2023-04-24T00:13:32;8.63;;;3.70;;
22916;SDS011;11624;53.250;7.456;2023-04-24T00:16:00;7.75;;;3.40;;
22916;SDS011;11624;53.250;7.456;2023-04-24T00:18:28;8.93;;;3.63;;
22916;SDS011;11624;53.250;7.456;2023-04-24T00:20:56;6.32;;;3.25;;
22916;SDS011;11624;53.250;7.456;2023-04-24T00:23:25;6.30;;;2.70;;
22916;SDS011;11624;53.250;7.456;2023-04-24T00:25:53;4.68;;;2.40;;
22916;SDS011;11624;53.250;7.456;2023-04-24T00:28:21;4.28;;;2.17;;
22916;SDS011;11624;53.250;7.456;2023-04-24T00:30:50;4.72;;;2.10;;
22916;SDS011;11624;53.250;7.456;2023-04-24T00:33:18;6.68;;;3.05;;
22916;SDS011;11624;53.250;7.456;2023-04-24T00:35:46;4.05;;;2.10;;
22916;SDS011;11624;53.250;7.456;2023-04-24T00:38:15;2.65;;;1.90;;
22916;SDS011;11624;53.250;7.456;2023-04-24T00:40:46;2.95;;;1.83;;
22916;SDS011;11624;53.250;7.456;2023-04-24T00:43:21;3.83;;;2.50;;
22916;SDS011;11624;53.250;7.456;2023-04-24T00:46:00;3.95;;;2.25;;
22916;SDS011;11624;53.250;7.456;2023-04-24T00:48:31;3.63;;;1.90;;
22916;SDS011;11624;53.250;7.456;2023-04-24T00:51:11;3.45;;;1.63;;
22916;SDS011;11624;53.250;7.456;2023-04-24T00:53:44;4.07;;;1.70;;
22916;SDS011;11624;53.250;7.456;2023-04-24T00:56:24;5.13;;;2.00;;
22916;SDS011;11624;53.250;7.456;2023-04-24T00:59:25;4.00;;;2.30;;
22916;SDS011;11624;53.250;7.456;2023-04-24T01:02:25;2.65;;;1.77;;
22916;SDS011;11624;53.250;7.456;2023-04-24T01:05:14;4.95;;;1.77;;
22916;SDS011;11624;53.250;7.456;2023-04-24T01:08:04;3.30;;;2.10;;
22916;SDS011;11624;53.250;7.456;2023-04-24T01:10:45;6.35;;;2.25;;
22916;SDS011;11624;53.250;7.456;2023-04-24T01:13:42;3.42;;;2.10;;
22916;SDS011;11624;53.250;7.456;2023-04-24T01:16:30;4.70;;;3.42;;
22916;SDS011;11624;53.250;7.456;2023-04-24T01:19:12;6.45;;;2.60;;
22916;SDS011;11624;53.250;7.456;2023-04-24T01:21:46;5.25;;;2.90;;
22916;SDS011;11624;53.250;7.456;2023-04-24T01:24:30;4.88;;;2.60;;
22916;SDS011;11624;53.250;7.456;2023-04-24T01:27:22;6.22;;;2.70;;
22916;SDS011;11624;53.250;7.456;2023-04-24T01:30:05;6.03;;;3.03;;
22916;SDS011;11624;53.250;7.456;2023-04-24T01:32:34;7.85;;;5.22;;
22916;SDS011;11624;53.250;7.456;2023-04-24T01:35:04;9.07;;;2.95;;
22916;SDS011;11624;53.250;7.456;2023-04-24T01:37:33;7.22;;;3.13;;
22916;SDS011;11624;53.250;7.456;2023-04-24T01:40:06;8.60;;;3.42;;
22916;SDS011;11624;53.250;7.456;2023-04-24T01:42:35;7.82;;;4.40;;
22916;SDS011;11624;53.250;7.456;2023-04-24T01:45:04;7.85;;;3.50;;
22916;SDS011;11624;53.250;7.456;2023-04-24T01:47:47;9.18;;;3.72;;
22916;SDS011;11624;53.250;7.456;2023-04-24T01:50:16;10.15;;;4.18;;
22916;SDS011;11624;53.250;7.456;2023-04-24T01:52:44;9.73;;;4.05;;
22916;SDS011;11624;53.250;7.456;2023-04-24T01:55:22;10.23;;;4.80;;
22916;SDS011;11624;53.250;7.456;2023-04-24T01:57:50;12.48;;;7.30;;
22916;SDS011;11624;53.250;7.456;2023-04-24T02:00:29;11.55;;;5.07;;
22916;SDS011;11624;53.250;7.456;2023-04-24T02:03:28;11.60;;;5.80;;
22916;SDS011;11624;53.250;7.456;2023-04-24T02:06:06;11.48;;;5.15;;
22916;SDS011;11624;53.250;7.456;2023-04-24T02:08:36;12.40;;;5.68;;
22916;SDS011;11624;53.250;7.456;2023-04-24T02:11:18;12.25;;;6.20;;
22916;SDS011;11624;53.250;7.456;2023-04-24T02:13:46;12.27;;;6.30;;
22916;SDS011;11624;53.250;7.456;2023-04-24T02:16:24;14.52;;;6.03;;
22916;SDS011;11624;53.250;7.456;2023-04-24T02:19:20;13.40;;;6.38;;
22916;SDS011;11624;53.250;7.456;2023-04-24T02:21:49;13.02;;;5.93;;
22916;SDS011;11624;53.250;7.456;2023-04-24T02:24:19;14.60;;;5.82;;
22916;SDS011;11624;53.250;7.456;2023-04-24T02:26:51;14.80;;;6.10;;
22916;SDS011;11624;53.250;7.456;2023-04-24T02:29:21;14.00;;;5.70;;
22916;SDS011;11624;53.250;7.456;2023-04-24T02:31:59;12.90;;;5.85;;
22916;SDS011;11624;53.250;7.456;2023-04-24T02:34:30;13.52;;;5.70;;
22916;SDS011;11624;53.250;7.456;2023-04-24T02:37:01;13.05;;;6.32;;
22916;SDS011;11624;53.250;7.456;2023-04-24T02:39:29;13.43;;;6.18;;
22916;SDS011;11624;53.250;7.456;2023-04-24T02:42:04;13.45;;;6.22;;
22916;SDS011;11624;53.250;7.456;2023-04-24T02:44:38;12.90;;;5.75;;
22916;SDS011;11624;53.250;7.456;2023-04-24T02:53:10;14.55;;;6.03;;
22916;SDS011;11624;53.250;7.456;2023-04-24T02:56:37;14.45;;;5.68;;
22916;SDS011;11624;53.250;7.456;2023-04-24T02:59:14;14.25;;;5.97;;
22916;SDS011;11624;53.250;7.456;2023-04-24T03:02:16;13.40;;;4.55;;
22916;SDS011;11624;53.250;7.456;2023-04-24T03:04:48;9.68;;;3.70;;
22916;SDS011;11624;53.250;7.456;2023-04-24T03:07:28;0.55;;;0.40;;
22916;SDS011;11624;53.250;7.456;2023-04-24T03:10:36;0.65;;;0.45;;
22916;SDS011;11624;53.250;7.456;2023-04-24T03:13:18;0.22;;;0.22;;
22916;SDS011;11624;53.250;7.456;2023-04-24T03:15:51;0.20;;;0.20;;
22916;SDS011;11624;53.250;7.456;2023-04-24T03:18:29;0.00;;;0.00;;
22916;SDS011;11624;53.250;7.456;2023-04-24T03:21:04;1.00;;;0.50;;
22916;SDS011;11624;53.250;7.456;2023-04-24T03:23:56;0.38;;;0.32;;
22916;SDS011;11624;53.250;7.456;2023-04-24T03:26:48;0.20;;;0.15;;
22916;SDS011;11624;53.250;7.456;2023-04-24T03:29:48;0.75;;;0.28;;
22916;SDS011;11624;53.250;7.456;2023-04-24T03:32:27;1.13;;;0.80;;
22916;SDS011;11624;53.250;7.456;2023-04-24T03:34:58;0.30;;;0.30;;
22916;SDS011;11624;53.250;7.456;2023-04-24T03:37:31;3.13;;;1.00;;
22916;SDS011;11624;53.250;7.456;2023-04-24T03:40:29;0.32;;;0.30;;
22916;SDS011;11624;53.250;7.456;2023-04-24T03:42:58;0.40;;;0.35;;
22916;SDS011;11624;53.250;7.456;2023-04-24T03:45:26;2.50;;;0.40;;
22916;SDS011;11624;53.250;7.456;2023-04-24T03:47:55;0.00;;;0.00;;
22916;SDS011;11624;53.250;7.456;2023-04-24T03:50:24;0.30;;;0.30;;
22916;SDS011;11624;53.250;7.456;2023-04-24T03:52:53;1.38;;;0.65;;
22916;SDS011;11624;53.250;7.456;2023-04-24T03:55:32;0.57;;;0.38;;
22916;SDS011;11624;53.250;7.456;2023-04-24T03:58:01;0.15;;;0.15;;
22916;SDS011;11624;53.250;7.456;2023-04-24T04:00:29;1.25;;;0.50;;
22916;SDS011;11624;53.250;7.456;2023-04-24T04:03:24;0.38;;;0.28;;
22916;SDS011;11624;53.250;7.456;2023-04-24T04:05:53;1.75;;;0.65;;
22916;SDS011;11624;53.250;7.456;2023-04-24T04:08:21;0.95;;;0.20;;
22916;SDS011;11624;53.250;7.456;2023-04-24T04:10:49;0.17;;;0.17;;
22916;SDS011;11624;53.250;7.456;2023-04-24T04:13:17;0.65;;;0.50;;
22916;SDS011;11624;53.250;7.456;2023-04-24T04:15:46;0.40;;;0.40;;
22916;SDS011;11624;53.250;7.456;2023-04-24T04:18:14;1.45;;;0.85;;
22916;SDS011;11624;53.250;7.456;2023-04-24T04:20:44;0.45;;;0.35;;
22916;SDS011;11624;53.250;7.456;2023-04-24T04:23:13;1.13;;;0.77;;
22916;SDS011;11624;53.250;7.456;2023-04-24T04:26:04;0.05;;;0.05;;
22916;SDS011;11624;53.250;7.456;2023-04-24T04:29:06;2.30;;;0.35;;
22916;SDS011;11624;53.250;7.456;2023-04-24T04:31:38;0.65;;;0.40;;
22916;SDS011;11624;53.250;7.456;2023-04-24T04:34:10;0.75;;;0.47;;
22916;SDS011;11624;53.250;7.456;2023-04-24T04:36:41;0.88;;;0.40;;
22916;SDS011;11624;53.250;7.456;2023-04-24T04:39:24;1.20;;;0.47;;
22916;SDS011;11624;53.250;7.456;2023-04-24T04:42:06;0.60;;;0.47;;
22916;SDS011;11624;53.250;7.456;2023-04-24T04:44:40;0.30;;;0.15;;
22916;SDS011;11624;53.250;7.456;2023-04-24T04:47:14;0.10;;;0.10;;
22916;SDS011;11624;53.250;7.456;2023-04-24T04:49:42;0.77;;;0.45;;
22916;SDS011;11624;53.250;7.456;2023-04-24T04:52:24;0.22;;;0.22;;
22916;SDS011;11624;53.250;7.456;2023-04-24T04:55:05;1.35;;;0.52;;
22916;SDS011;11624;53.250;7.456;2023-04-24T04:57:54;1.23;;;0.68;;
22916;SDS011;11624;53.250;7.456;2023-04-24T05:00:24;0.10;;;0.10;;
22916;SDS011;11624;53.250;7.456;2023-04-24T05:02:53;0.60;;;0.60;;
22916;SDS011;11624;53.250;7.456;2023-04-24T05:05:39;0.30;;;0.30;;
22916;SDS011;11624;53.250;7.456;2023-04-24T05:08:12;0.30;;;0.30;;
22916;SDS011;11624;53.250;7.456;2023-04-24T05:10:43;0.08;;;0.08;;
22916;SDS011;11624;53.250;7.456;2023-04-24T05:13:11;0.40;;;0.40;;
22916;SDS011;11624;53.250;7.456;2023-04-24T05:15:40;0.10;;;0.10;;
22916;SDS011;11624;53.250;7.456;2023-04-24T05:18:08;0.82;;;0.40;;
22916;SDS011;11624;53.250;7.456;2023-04-24T05:20:36;0.55;;;0.10;;
22916;SDS011;11624;53.250;7.456;2023-04-24T05:23:04;0.30;;;0.30;;
22916;SDS011;11624;53.250;7.456;2023-04-24T05:25:34;0.20;;;0.20;;
22916;SDS011;11624;53.250;7.456;2023-04-24T05:28:06;0.20;;;0.20;;
22916;SDS011;11624;53.250;7.456;2023-04-24T05:30:35;0.32;;;0.32;;
22916;SDS011;11624;53.250;7.456;2023-04-24T05:33:03;0.35;;;0.35;;
22916;SDS011;11624;53.250;7.456;2023-04-24T05:35:33;0.40;;;0.40;;
22916;SDS011;11624;53.250;7.456;2023-04-24T05:38:01;0.30;;;0.30;;
22916;SDS011;11624;53.250;7.456;2023-04-24T05:40:30;0.40;;;0.40;;
22916;SDS011;11624;53.250;7.456;2023-04-24T05:43:00;0.10;;;0.10;;
22916;SDS011;11624;53.250;7.456;2023-04-24T05:45:28;0.25;;;0.25;;
22916;SDS011;11624;53.250;7.456;2023-04-24T05:47:56;1.27;;;0.70;;
22916;SDS011;11624;53.250;7.456;2023-04-24T05:50:24;0.05;;;0.05;;
22916;SDS011;11624;53.250;7.456;2023-04-24T05:52:52;1.83;;;0.55;;
22916;SDS011;11624;53.250;7.456;2023-04-24T05:55:24;1.23;;;0.63;;
22916;SDS011;11624;53.250;7.456;2023-04-24T05:57:53;1.25;;;0.47;;
22916;SDS011;11624;53.250;7.456;2023-04-24T06:00:23;0.32;;;0.32;;
22916;SDS011;11624;53.250;7.456;2023-04-24T06:02:59;0.08;;;0.08;;
22916;SDS011;11624;53.250;7.456;2023-04-24T06:05:30;0.30;;;0.30;;
22916;SDS011;11624;53.250;7.456;2023-04-24T06:07:59;0.10;;;0.10;;
22916;SDS011;11624;53.250;7.456;2023-04-24T06:10:32;0.45;;;0.45;;
22916;SDS011;11624;53.250;7.456;2023-04-24T06:13:00;1.15;;;0.70;;
22916;SDS011;11624;53.250;7.456;2023-04-24T06:15:31;0.47;;;0.40;;
22916;SDS011;11624;53.250;7.456;2023-04-24T06:18:04;0.15;;;0.15;;
22916;SDS011;11624;53.250;7.456;2023-04-24T06:20:33;0.47;;;0.30;;
22916;SDS011;11624;53.250;7.456;2023-04-24T06:23:01;0.17;;;0.17;;
22916;SDS011;11624;53.250;7.456;2023-04-24T06:25:31;1.17;;;0.57;;
22916;SDS011;11624;53.250;7.456;2023-04-24T06:28:00;2.08;;;0.82;;
22916;SDS011;11624;53.250;7.456;2023-04-24T06:30:31;0.10;;;0.10;;
22916;SDS011;11624;53.250;7.456;2023-04-24T06:32:59;0.30;;;0.30;;
22916;SDS011;11624;53.250;7.456;2023-04-24T06:35:45;1.00;;;0.30;;
22916;SDS011;11624;53.250;7.456;2023-04-24T06:38:13;0.60;;;0.52;;
22916;SDS011;11624;53.250;7.456;2023-04-24T06:40:42;0.30;;;0.30;;
22916;SDS011;11624;53.250;7.456;2023-04-24T06:43:10;0.20;;;0.20;;
22916;SDS011;11624;53.250;7.456;2023-04-24T06:45:40;0.20;;;0.20;;
22916;SDS011;11624;53.250;7.456;2023-04-24T06:48:10;0.57;;;0.52;;
22916;SDS011;11624;53.250;7.456;2023-04-24T06:50:38;0.35;;;0.20;;
22916;SDS011;11624;53.250;7.456;2023-04-24T06:53:06;0.15;;;0.10;;
22916;SDS011;11624;53.250;7.456;2023-04-24T06:55:35;0.68;;;0.30;;
22916;SDS011;11624;53.250;7.456;2023-04-24T06:58:03;0.00;;;0.00;;
22916;SDS011;11624;53.250;7.456;2023-04-24T07:00:32;0.30;;;0.30;;
22916;SDS011;11624;53.250;7.456;2023-04-24T07:03:01;0.47;;;0.40;;
22916;SDS011;11624;53.250;7.456;2023-04-24T07:05:31;1.38;;;0.55;;
22916;SDS011;11624;53.250;7.456;2023-04-24T07:08:01;0.80;;;0.32;;
22916;SDS011;11624;53.250;7.456;2023-04-24T07:10:30;0.65;;;0.30;;
22916;SDS011;11624;53.250;7.456;2023-04-24T07:13:02;0.22;;;0.22;;
22916;SDS011;11624;53.250;7.456;2023-04-24T07:15:30;0.00;;;0.00;;
22916;SDS011;11624;53.250;7.456;2023-04-24T07:17:58;0.30;;;0.30;;
22916;SDS011;11624;53.250;7.456;2023-04-24T07:20:32;0.10;;;0.10;;
22916;SDS011;11624;53.250;7.456;2023-04-24T07:23:01;0.10;;;0.10;;
22916;SDS011;11624;53.250;7.456;2023-04-24T07:25:29;2.25;;;0.95;;
22916;SDS011;11624;53.250;7.456;2023-04-24T07:27:57;0.10;;;0.10;;
22916;SDS011;11624;53.250;7.456;2023-04-24T07:30:26;0.15;;;0.15;;
22916;SDS011;11624;53.250;7.456;2023-04-24T07:32:55;0.10;;;0.10;;
22916;SDS011;11624;53.250;7.456;2023-04-24T07:35:23;0.10;;;0.10;;
22916;SDS011;11624;53.250;7.456;2023-04-24T07:37:53;0.10;;;0.10;;
22916;SDS011;11624;53.250;7.456;2023-04-24T07:40:21;1.13;;;0.17;;
22916;SDS011;11624;53.250;7.456;2023-04-24T07:42:50;0.17;;;0.13;;
22916;SDS011;11624;53.250;7.456;2023-04-24T07:45:18;0.40;;;0.17;;
22916;SDS011;11624;53.250;7.456;2023-04-24T07:47:46;0.55;;;0.43;;
22916;SDS011;11624;53.250;7.456;2023-04-24T07:50:15;0.00;;;0.00;;
22916;SDS011;11624;53.250;7.456;2023-04-24T07:52:43;0.00;;;0.00;;
22916;SDS011;11624;53.250;7.456;2023-04-24T07:55:12;0.05;;;0.05;;
22916;SDS011;11624;53.250;7.456;2023-04-24T07:57:40;0.00;;;0.00;;
22916;SDS011;11624;53.250;7.456;2023-04-24T08:00:09;0.03;;;0.03;;
22916;SDS011;11624;53.250;7.456;2023-04-24T08:02:37;0.70;;;0.20;;
22916;SDS011;11624;53.250;7.456;2023-04-24T08:05:06;0.30;;;0.15;;
22916;SDS011;11624;53.250;7.456;2023-04-24T08:07:35;0.28;;;0.28;;
22916;SDS011;11624;53.250;7.456;2023-04-24T08:10:03;0.10;;;0.10;;
22916;SDS011;11624;53.250;7.456;2023-04-24T08:12:34;0.40;;;0.30;;
22916;SDS011;11624;53.250;7.456;2023-04-24T08:15:02;0.00;;;0.00;;
22916;SDS011;11624;53.250;7.456;2023-04-24T08:17:30;0.08;;;0.08;;
22916;SDS011;11624;53.250;7.456;2023-04-24T08:20:00;0.00;;;0.00;;
22916;SDS011;11624;53.250;7.456;2023-04-24T08:22:28;0.10;;;0.10;;
22916;SDS011;11624;53.250;7.456;2023-04-24T08:24:57;0.45;;;0.28;;
22916;SDS011;11624;53.250;7.456;2023-04-24T08:27:27;0.08;;;0.08;;
22916;SDS011;11624;53.250;7.456;2023-04-24T08:29:56;0.17;;;0.17;;
22916;SDS011;11624;53.250;7.456;2023-04-24T08:32:25;0.30;;;0.30;;
22916;SDS011;11624;53.250;7.456;2023-04-24T08:34:55;0.05;;;0.05;;
22916;SDS011;11624;53.250;7.456;2023-04-24T08:37:23;0.00;;;0.00;;
22916;SDS011;11624;53.250;7.456;2023-04-24T08:39:52;0.25;;;0.20;;
22916;SDS011;11624;53.250;7.456;2023-04-24T08:42:21;0.20;;;0.20;;
22916;SDS011;11624;53.250;7.456;2023-04-24T08:44:49;0.55;;;0.40;;
22916;SDS011;11624;53.250;7.456;2023-04-24T08:47:19;0.08;;;0.08;;
22916;SDS011;11624;53.250;7.456;2023-04-24T08:49:48;0.10;;;0.10;;
22916;SDS011;11624;53.250;7.456;2023-04-24T08:52:18;0.10;;;0.10;;
22916;SDS011;11624;53.250;7.456;2023-04-24T08:54:46;0.10;;;0.10;;
22916;SDS011;11624;53.250;7.456;2023-04-24T08:57:15;0.00;;;0.00;;
22916;SDS011;11624;53.250;7.456;2023-04-24T08:59:44;0.00;;;0.00;;
22916;SDS011;11624;53.250;7.456;2023-04-24T09:02:13;0.00;;;0.00;;
22916;SDS011;11624;53.250;7.456;2023-04-24T09:04:43;1.17;;;0.25;;
22916;SDS011;11624;53.250;7.456;2023-04-24T09:07:14;0.00;;;0.00;;
22916;SDS011;11624;53.250;7.456;2023-04-24T09:09:44;0.80;;;0.50;;
22916;SDS011;11624;53.250;7.456;2023-04-24T09:12:12;0.20;;;0.20;;
22916;SDS011;11624;53.250;7.456;2023-04-24T09:14:41;0.10;;;0.10;;
22916;SDS011;11624;53.250;7.456;2023-04-24T09:17:11;0.10;;;0.10;;
22916;SDS011;11624;53.250;7.456;2023-04-24T09:19:40;0.00;;;0.00;;
22916;SDS011;11624;53.250;7.456;2023-04-24T09:22:11;0.10;;;0.10;;
22916;SDS011;11624;53.250;7.456;2023-04-24T09:24:39;0.20;;;0.10;;
22916;SDS011;11624;53.250;7.456;2023-04-24T09:27:07;2.08;;;0.47;;
22916;SDS011;11624;53.250;7.456;2023-04-24T09:29:39;0.13;;;0.10;;
22916;SDS011;11624;53.250;7.456;2023-04-24T09:35:08;0.57;;;0.30;;
22916;SDS011;11624;53.250;7.456;2023-04-24T09:37:40;1.00;;;0.63;;
22916;SDS011;11624;53.250;7.456;2023-04-24T09:40:10;0.00;;;0.00;;
22916;SDS011;11624;53.250;7.456;2023-04-24T09:42:41;0.45;;;0.40;;
22916;SDS011;11624;53.250;7.456;2023-04-24T09:45:11;0.10;;;0.10;;
22916;SDS011;11624;53.250;7.456;2023-04-24T09:47:41;0.68;;;0.38;;
22916;SDS011;11624;53.250;7.456;2023-04-24T09:50:14;0.47;;;0.38;;
22916;SDS011;11624;53.250;7.456;2023-04-24T09:52:56;0.55;;;0.30;;
22916;SDS011;11624;53.250;7.456;2023-04-24T09:55:26;0.10;;;0.10;;
22916;SDS011;11624;53.250;7.456;2023-04-24T09:58:01;0.20;;;0.20;;
22916;SDS011;11624;53.250;7.456;2023-04-24T10:03:46;0.55;;;0.55;;
22916;SDS011;11624;53.250;7.456;2023-04-24T10:06:34;0.82;;;0.52;;
22916;SDS011;11624;53.250;7.456;2023-04-24T10:09:04;1.35;;;0.22;;
22916;SDS011;11624;53.250;7.456;2023-04-24T10:11:37;0.10;;;0.10;;
22916;SDS011;11624;53.250;7.456;2023-04-24T10:14:10;0.10;;;0.10;;
22916;SDS011;11624;53.250;7.456;2023-04-24T10:16:40;1.80;;;0.60;;
22916;SDS011;11624;53.250;7.456;2023-04-24T10:19:09;0.73;;;0.70;;
22916;SDS011;11624;53.250;7.456;2023-04-24T10:21:49;2.05;;;1.30;;
22916;SDS011;11624;53.250;7.456;2023-04-24T10:24:35;4.43;;;1.02;;
22916;SDS011;11624;53.250;7.456;2023-04-24T10:27:06;1.48;;;1.00;;
22916;SDS011;11624;53.250;7.456;2023-04-24T10:29:44;0.38;;;0.38;;
22916;SDS011;11624;53.250;7.456;2023-04-24T10:32:14;0.98;;;0.52;;
22916;SDS011;11624;53.250;7.456;2023-04-24T10:34:42;1.27;;;0.65;;
22916;SDS011;11624;53.250;7.456;2023-04-24T10:37:11;2.40;;;0.82;;
22916;SDS011;11624;53.250;7.456;2023-04-24T10:43:44;0.90;;;0.88;;
22916;SDS011;11624;53.250;7.456;2023-04-24T10:46:19;0.52;;;0.43;;
22916;SDS011;11624;53.250;7.456;2023-04-24T10:48:52;5.47;;;0.95;;
22916;SDS011;11624;53.250;7.456;2023-04-24T10:51:42;1.77;;;1.23;;
22916;SDS011;11624;53.250;7.456;2023-04-24T10:54:22;2.85;;;0.55;;
22916;SDS011;11624;53.250;7.456;2023-04-24T11:03:05;0.80;;;0.60;;
22916;SDS011;11624;53.250;7.456;2023-04-24T11:05:50;0.45;;;0.45;;
22916;SDS011;11624;53.250;7.456;2023-04-24T11:08:32;1.75;;;1.08;;
22916;SDS011;11624;53.250;7.456;2023-04-24T11:21:24;3.20;;;2.20;;
22916;SDS011;11624;53.250;7.456;2023-04-24T11:24:26;1.55;;;0.90;;
22916;SDS011;11624;53.250;7.456;2023-04-24T11:27:00;1.02;;;0.75;;
22916;SDS011;11624;53.250;7.456;2023-04-24T11:32:36;1.13;;;0.38;;
22916;SDS011;11624;53.250;7.456;2023-04-24T11:35:20;0.70;;;0.70;;
22916;SDS011;11624;53.250;7.456;2023-04-24T11:37:52;7.03;;;1.45;;
22916;SDS011;11624;53.250;7.456;2023-04-24T11:40:23;0.95;;;0.47;;
22916;SDS011;11624;53.250;7.456;2023-04-24T11:42:52;0.30;;;0.30;;
22916;SDS011;11624;53.250;7.456;2023-04-24T11:45:22;0.45;;;0.45;;
22916;SDS011;11624;53.250;7.456;2023-04-24T11:47:52;2.63;;;1.00;;
22916;SDS011;11624;53.250;7.456;2023-04-24T11:50:22;0.20;;;0.20;;
22916;SDS011;11624;53.250;7.456;2023-04-24T11:52:53;0.68;;;0.57;;
22916;SDS011;11624;53.250;7.456;2023-04-24T11:55:27;5.25;;;1.02;;
22916;SDS011;11624;53.250;7.456;2023-04-24T11:57:56;0.73;;;0.60;;
22916;SDS011;11624;53.250;7.456;2023-04-24T12:00:26;0.75;;;0.20;;
22916;SDS011;11624;53.250;7.456;2023-04-24T12:03:06;0.30;;;0.30;;
22916;SDS011;11624;53.250;7.456;2023-04-24T12:05:36;1.13;;;0.70;;
22916;SDS011;11624;53.250;7.456;2023-04-24T12:08:06;2.45;;;0.98;;
22916;SDS011;11624;53.250;7.456;2023-04-24T12:10:35;0.10;;;0.10;;
22916;SDS011;11624;53.250;7.456;2023-04-24T12:13:03;0.73;;;0.40;;
22916;SDS011;11624;53.250;7.456;2023-04-24T12:15:31;3.30;;;1.52;;
22916;SDS011;11624;53.250;7.456;2023-04-24T12:18:00;1.35;;;0.80;;
22916;SDS011;11624;53.250;7.456;2023-04-24T12:20:28;0.22;;;0.22;;
22916;SDS011;11624;53.250;7.456;2023-04-24T12:22:59;0.20;;;0.20;;
22916;SDS011;11624;53.250;7.456;2023-04-24T12:25:29;0.20;;;0.20;;
22916;SDS011;11624;53.250;7.456;2023-04-24T12:28:08;0.08;;;0.08;;
22916;SDS011;11624;53.250;7.456;2023-04-24T12:30:40;1.88;;;0.80;;
22916;SDS011;11624;53.250;7.456;2023-04-24T12:33:10;0.10;;;0.10;;
22916;SDS011;11624;53.250;7.456;2023-04-24T12:35:40;0.05;;;0.05;;
22916;SDS011;11624;53.250;7.456;2023-04-24T12:38:10;0.20;;;0.20;;
22916;SDS011;11624;53.250;7.456;2023-04-24T12:40:40;0.20;;;0.20;;
22916;SDS011;11624;53.250;7.456;2023-04-24T12:43:13;0.45;;;0.30;;
22916;SDS011;11624;53.250;7.456;2023-04-24T12:45:43;0.10;;;0.10;;
22916;SDS011;11624;53.250;7.456;2023-04-24T12:48:13;0.43;;;0.22;;
22916;SDS011;11624;53.250;7.456;2023-04-24T12:50:42;3.50;;;0.82;;
22916;SDS011;11624;53.250;7.456;2023-04-24T12:53:14;0.20;;;0.20;;
22916;SDS011;11624;53.250;7.456;2023-04-24T12:55:43;0.28;;;0.28;;
22916;SDS011;11624;53.250;7.456;2023-04-24T12:58:13;0.00;;;0.00;;
22916;SDS011;11624;53.250;7.456;2023-04-24T13:00:42;0.10;;;0.10;;
22916;SDS011;11624;53.250;7.456;2023-04-24T13:03:13;0.30;;;0.30;;
22916;SDS011;11624;53.250;7.456;2023-04-24T13:05:42;0.17;;;0.17;;
22916;SDS011;11624;53.250;7.456;2023-04-24T13:08:11;0.10;;;0.10;;
22916;SDS011;11624;53.250;7.456;2023-04-24T13:10:41;0.00;;;0.00;;
22916;SDS011;11624;53.250;7.456;2023-04-24T13:13:09;0.10;;;0.10;;
22916;SDS011;11624;53.250;7.456;2023-04-24T13:15:37;0.68;;;0.57;;
22916;SDS011;11624;53.250;7.456;2023-04-24T13:18:05;0.20;;;0.20;;
22916;SDS011;11624;53.250;7.456;2023-04-24T13:20:33;0.08;;;0.08;;
22916;SDS011;11624;53.250;7.456;2023-04-24T13:23:02;0.30;;;0.30;;
22916;SDS011;11624;53.250;7.456;2023-04-24T13:25:34;1.38;;;1.08;;
22916;SDS011;11624;53.250;7.456;2023-04-24T13:28:05;0.50;;;0.50;;
22916;SDS011;11624;53.250;7.456;2023-04-24T13:30:33;0.00;;;0.00;;
22916;SDS011;11624;53.250;7.456;2023-04-24T13:33:01;0.52;;;0.22;;
22916;SDS011;11624;53.250;7.456;2023-04-24T13:35:29;2.42;;;1.17;;
22916;SDS011;11624;53.250;7.456;2023-04-24T13:37:57;0.15;;;0.15;;
22916;SDS011;11624;53.250;7.456;2023-04-24T13:40:27;0.43;;;0.17;;
22916;SDS011;11624;53.250;7.456;2023-04-24T13:42:55;0.25;;;0.25;;
22916;SDS011;11624;53.250;7.456;2023-04-24T13:45:25;0.00;;;0.00;;
22916;SDS011;11624;53.250;7.456;2023-04-24T13:47:53;3.60;;;1.17;;
22916;SDS011;11624;53.250;7.456;2023-04-24T13:50:23;0.17;;;0.17;;
22916;SDS011;11624;53.250;7.456;2023-04-24T13:52:51;0.25;;;0.25;;
22916;SDS011;11624;53.250;7.456;2023-04-24T13:55:20;0.00;;;0.00;;
22916;SDS011;11624;53.250;7.456;2023-04-24T13:57:48;0.57;;;0.20;;
22916;SDS011;11624;53.250;7.456;2023-04-24T14:00:18;0.55;;;0.40;;
22916;SDS011;11624;53.250;7.456;2023-04-24T14:02:48;0.00;;;0.00;;
22916;SDS011;11624;53.250;7.456;2023-04-24T14:05:17;0.20;;;0.20;;
22916;SDS011;11624;53.250;7.456;2023-04-24T14:07:47;0.10;;;0.10;;
22916;SDS011;11624;53.250;7.456;2023-04-24T14:10:15;0.08;;;0.05;;
22916;SDS011;11624;53.250;7.456;2023-04-24T14:12:43;0.10;;;0.10;;
22916;SDS011;11624;53.250;7.456;2023-04-24T14:15:12;0.43;;;0.35;;
22916;SDS011;11624;53.250;7.456;2023-04-24T14:17:40;0.15;;;0.15;;
22916;SDS011;11624;53.250;7.456;2023-04-24T14:20:10;1.55;;;0.63;;
22916;SDS011;11624;53.250;7.456;2023-04-24T14:22:39;0.10;;;0.10;;
22916;SDS011;11624;53.250;7.456;2023-04-24T14:25:07;0.32;;;0.32;;
22916;SDS011;11624;53.250;7.456;2023-04-24T14:27:36;0.00;;;0.00;;
22916;SDS011;11624;53.250;7.456;2023-04-24T14:30:05;0.20;;;0.20;;
22916;SDS011;11624;53.250;7.456;2023-04-24T14:32:34;0.08;;;0.08;;
22916;SDS011;11624;53.250;7.456;2023-04-24T14:35:02;0.00;;;0.00;;
22916;SDS011;11624;53.250;7.456;2023-04-24T14:37:32;0.00;;;0.00;;
22916;SDS011;11624;53.250;7.456;2023-04-24T14:40:00;0.00;;;0.00;;
22916;SDS011;11624;53.250;7.456;2023-04-24T14:42:49;0.22;;;0.22;;
22916;SDS011;11624;53.250;7.456;2023-04-24T14:45:17;0.00;;;0.00;;
22916;SDS011;11624;53.250;7.456;2023-04-24T14:47:46;3.20;;;0.88;;
22916;SDS011;11624;53.250;7.456;2023-04-24T14:50:14;0.00;;;0.00;;
22916;SDS011;11624;53.250;7.456;2023-04-24T14:52:44;0.80;;;0.40;;
22916;SDS011;11624;53.250;7.456;2023-04-24T14:55:12;0.70;;;0.38;;
22916;SDS011;11624;53.250;7.456;2023-04-24T14:57:40;0.25;;;0.13;;
22916;SDS011;11624;53.250;7.456;2023-04-24T15:00:10;0.20;;;0.20;;
22916;SDS011;11624;53.250;7.456;2023-04-24T15:02:39;1.45;;;0.57;;
22916;SDS011;11624;53.250;7.456;2023-04-24T15:05:09;0.03;;;0.03;;
22916;SDS011;11624;53.250;7.456;2023-04-24T15:07:38;0.00;;;0.00;;
22916;SDS011;11624;53.250;7.456;2023-04-24T15:10:10;0.15;;;0.15;;
22916;SDS011;11624;53.250;7.456;2023-04-24T15:12:38;0.00;;;0.00;;
22916;SDS011;11624;53.250;7.456;2023-04-24T15:15:07;0.25;;;0.25;;
22916;SDS011;11624;53.250;7.456;2023-04-24T15:17:37;0.10;;;0.10;;
22916;SDS011;11624;53.250;7.456;2023-04-24T15:20:06;0.00;;;0.00;;
22916;SDS011;11624;53.250;7.456;2023-04-24T15:22:35;0.10;;;0.10;;
22916;SDS011;11624;53.250;7.456;2023-04-24T15:25:03;0.10;;;0.10;;
22916;SDS011;11624;53.250;7.456;2023-04-24T15:27:41;0.20;;;0.20;;
22916;SDS011;11624;53.250;7.456;2023-04-24T15:30:11;0.60;;;0.40;;
22916;SDS011;11624;53.250;7.456;2023-04-24T15:32:40;0.10;;;0.10;;
22916;SDS011;11624;53.250;7.456;2023-04-24T15:35:08;0.00;;;0.00;;
22916;SDS011;11624;53.250;7.456;2023-04-24T15:37:36;0.10;;;0.10;;
22916;SDS011;11624;53.250;7.456;2023-04-24T15:40:07;2.05;;;0.93;;
22916;SDS011;11624;53.250;7.456;2023-04-24T15:42:37;10.30;;;3.28;;
22916;SDS011;11624;53.250;7.456;2023-04-24T15:45:08;15.80;;;3.05;;
22916;SDS011;11624;53.250;7.456;2023-04-24T15:47:37;10.93;;;3.33;;
22916;SDS011;11624;53.250;7.456;2023-04-24T15:50:06;16.35;;;3.90;;
22916;SDS011;11624;53.250;7.456;2023-04-24T15:52:39;14.63;;;4.00;;